Terminal Aerodrome Forecast
Issued by NWS

Home | Current Version | Previous Version | Text Only | Print | Product List | Glossary On
Versions: 1 2 3 4 5 6 7 8 9 10 11 12 13 14
000
FTPA31 PHFO 271140
TAFHOG
TAF
PHOG 271140Z 2712/2812 06014G20KT P6SM FEW025 SCT050
     FM272000 06022G30KT P6SM FEW030 SCT050
     FM280500 05016KT P6SM FEW030 SCT045
      AMD LTD TO VIS AND WIND TIL 271600=

USA.gov is the U.S. government's official web portal to all federal, state and local government web resources and services.